Time;durP1;ratioP1;P1;durP2;ratioP2;P2;SDS_P1;SDS_P2;PMS_P1;PMS_P2;Temp;Humidity;BMP_temperature;BMP_pressure;BME280_temperature;BME280_humidity;BME280_pressure;Samples;Min_cycle;Max_cycle;Signal;HPM_P1;HPM_P2
2023/01/09 00:00:13;;;;;;;47.91;34.07;;;;;;;-10.89;66.45;102869.91;456082;116;922683;-71
2023/01/09 00:01:20;;;;;;;40.24;32.56;;;;;;;-10.91;66.38;102869.92;455941;116;922998;-72
2023/01/09 00:02:23;;;;;;;42.73;32.44;;;;;;;-10.93;66.35;102874.37;455846;116;922550;-71
2023/01/09 00:03:26;;;;;;;38.31;31.54;;;;;;;-10.92;66.36;102870.84;456081;116;922917;-72
2023/01/09 00:04:30;;;;;;;42.74;30.41;;;;;;;-10.93;66.41;102863.83;456108;116;922492;-71
2023/01/09 00:05:33;;;;;;;40.17;30.94;;;;;;;-10.92;66.41;102869.97;456109;116;922639;-72
2023/01/09 00:06:36;;;;;;;39.17;30.22;;;;;;;-10.93;66.43;102858.56;456099;116;922968;-71
2023/01/09 00:07:39;;;;;;;41.96;30.45;;;;;;;-10.92;66.33;102864.70;456152;116;922509;-71
2023/01/09 00:08:42;;;;;;;39.08;30.47;;;;;;;-10.92;66.49;102857.67;456121;116;922581;-71
2023/01/09 00:09:45;;;;;;;42.75;31.56;;;;;;;-10.91;66.39;102862.02;449179;116;922935;-71
2023/01/09 00:10:49;;;;;;;34.87;29.80;;;;;;;-10.90;66.43;102852.36;448271;116;923167;-72
2023/01/09 00:11:53;;;;;;;38.04;29.46;;;;;;;-10.91;66.19;102862.02;455122;116;922458;-73
2023/01/09 00:12:56;;;;;;;35.13;27.98;;;;;;;-10.92;66.23;102862.06;455118;116;922994;-71
2023/01/09 00:13:59;;;;;;;41.11;28.98;;;;;;;-10.94;66.04;102856.81;448258;118;930448;-72
2023/01/09 00:15:04;;;;;;;39.23;29.50;;;;;;;-10.97;65.98;102857.72;448299;116;922402;-71
2023/01/09 00:16:08;;;;;;;34.62;29.24;;;;;;;-10.97;66.05;102859.51;446100;118;922822;-71
2023/01/09 00:17:11;;;;;;;39.11;29.73;;;;;;;-10.99;66.11;102861.28;446864;116;930540;-71
2023/01/09 00:18:14;;;;;;;35.03;29.25;;;;;;;-10.99;66.12;102851.62;456120;116;922914;-71
2023/01/09 00:19:17;;;;;;;44.73;31.34;;;;;;;-10.97;66.25;102853.37;455095;116;922531;-71
2023/01/09 00:20:20;;;;;;;39.83;31.48;;;;;;;-10.97;66.21;102862.14;453686;116;922471;-71
2023/01/09 00:21:23;;;;;;;42.24;32.39;;;;;;;-10.97;66.25;102862.14;456070;116;930319;-71
2023/01/09 00:22:26;;;;;;;44.36;30.80;;;;;;;-10.97;66.16;102860.34;456109;116;922481;-71
2023/01/09 00:23:29;;;;;;;43.24;31.66;;;;;;;-10.95;66.30;102859.46;456112;116;923058;-71
2023/01/09 00:24:32;;;;;;;39.36;29.89;;;;;;;-10.95;66.32;102848.92;450333;116;922581;-71
2023/01/09 00:25:35;;;;;;;38.13;30.11;;;;;;;-10.95;66.26;102847.16;448203;118;923446;-71
2023/01/09 00:26:39;;;;;;;39.66;29.79;;;;;;;-10.94;66.41;102851.55;439242;120;922666;-71
2023/01/09 00:27:42;;;;;;;38.26;29.48;;;;;;;-10.92;66.36;102851.53;439530;118;930605;-71
2023/01/09 00:28:47;;;;;;;41.42;30.83;;;;;;;-10.92;66.33;102848.89;448213;118;930821;-71
2023/01/09 00:29:51;;;;;;;41.76;31.58;;;;;;;-10.91;66.37;102850.64;455056;116;922541;-72
2023/01/09 00:30:56;;;;;;;41.65;32.29;;;;;;;-10.92;66.43;102847.13;456055;116;922786;-71
2023/01/09 00:31:59;;;;;;;42.34;31.97;;;;;;;-10.90;66.42;102839.19;455938;116;922524;-71
2023/01/09 00:33:02;;;;;;;47.48;31.78;;;;;;;-10.89;66.37;102840.93;456084;116;922526;-71
2023/01/09 00:34:09;;;;;;;43.68;33.31;;;;;;;-10.88;66.43;102840.05;455882;116;922600;-70
2023/01/09 00:35:15;;;;;;;45.43;34.15;;;;;;;-10.89;66.49;102851.47;455866;116;930527;-71
2023/01/09 00:36:18;;;;;;;45.06;33.07;;;;;;;-10.89;66.48;102839.17;454617;116;922504;-71
2023/01/09 00:37:21;;;;;;;42.74;33.23;;;;;;;-10.89;66.41;102844.44;456165;116;922515;-69
2023/01/09 00:38:25;;;;;;;39.41;32.17;;;;;;;-10.89;66.38;102843.56;455994;116;922451;-70
2023/01/09 00:39:28;;;;;;;46.92;34.58;;;;;;;-10.90;66.32;102861.14;455822;116;930657;-71
2023/01/09 00:40:31;;;;;;;48.55;36.73;;;;;;;-10.91;66.04;102848.84;455754;116;922539;-70
2023/01/09 00:41:43;;;;;;;52.14;37.74;;;;;;;-10.95;65.87;102849.80;455778;116;930573;-71
2023/01/09 00:42:50;;;;;;;54.23;38.39;;;;;;;-10.99;65.60;102859.52;455138;116;922517;-69
2023/01/09 00:43:57;;;;;;;55.09;37.52;;;;;;;-11.05;65.35;102858.73;455619;116;922968;-71
2023/01/09 00:45:03;;;;;;;53.68;37.51;;;;;;;-11.11;65.11;102857.05;455418;116;922839;-71
2023/01/09 00:46:07;;;;;;;51.34;35.57;;;;;;;-11.18;64.93;102851.88;455902;116;922840;-71
2023/01/09 00:47:19;;;;;;;58.71;37.11;;;;;;;-11.23;64.79;102851.95;455641;116;923004;-71
2023/01/09 00:48:26;;;;;;;63.12;39.00;;;;;;;-11.28;64.60;102859.05;447745;116;922588;-71
2023/01/09 00:49:31;;;;;;;55.03;35.67;;;;;;;-11.33;64.50;102854.73;454718;116;922492;-71
2023/01/09 00:50:35;;;;;;;59.48;40.82;;;;;;;-11.38;64.45;102848.66;449425;116;922664;-71
2023/01/09 00:51:40;;;;;;;57.20;39.02;;;;;;;-11.41;64.49;102860.13;449149;116;922651;-71
2023/01/09 00:52:45;;;;;;;54.97;39.64;;;;;;;-11.44;64.33;102857.51;446124;119;922606;-71
2023/01/09 00:53:49;;;;;;;52.06;38.97;;;;;;;-11.49;64.33;102854.06;455237;115;922588;-71
2023/01/09 00:54:53;;;;;;;57.32;40.10;;;;;;;-11.52;64.33;102852.33;455965;116;922497;-72
2023/01/09 00:55:59;;;;;;;56.19;38.87;;;;;;;-11.54;64.20;102850.63;451335;116;930639;-71
2023/01/09 00:57:02;;;;;;;53.85;37.49;;;;;;;-11.55;64.33;102854.14;450881;117;922646;-71
2023/01/09 00:58:06;;;;;;;50.83;36.73;;;;;;;-11.55;64.45;102855.02;451063;117;922584;-71
2023/01/09 00:59:09;;;;;;;52.67;35.42;;;;;;;-11.55;64.57;102865.54;452650;116;923083;-72
2023/01/09 01:00:13;;;;;;;53.30;37.69;;;;;;;-11.55;64.50;102859.41;455985;116;922560;-71
2023/01/09 01:01:16;;;;;;;54.14;39.55;;;;;;;-11.57;64.51;102859.41;455969;116;922606;-72
2023/01/09 01:02:19;;;;;;;59.68;39.30;;;;;;;-11.58;64.31;102856.82;449152;116;922870;-71
2023/01/09 01:03:22;;;;;;;51.83;36.96;;;;;;;-11.60;64.30;102863.85;451853;116;922397;-71
2023/01/09 01:08:30;;;;;;;44.21;32.93;;;;;;;-11.70;64.37;102856.97;448060;118;922568;-71
2023/01/09 01:09:32;;;;;;;45.07;32.17;;;;;;;-11.74;64.40;102856.14;448375;116;922497;-71
2023/01/09 01:10:36;;;;;;;43.33;34.99;;;;;;;-11.74;64.46;102850.03;448175;118;923015;-71
2023/01/09 01:11:39;;;;;;;48.98;34.33;;;;;;;-11.75;64.39;102856.18;448414;116;922712;-71
2023/01/09 01:12:43;;;;;;;41.68;33.65;;;;;;;-11.75;64.43;102854.42;448250;118;922571;-71
2023/01/09 01:13:46;;;;;;;45.72;34.86;;;;;;;-11.75;64.62;102858.81;455300;116;922472;-71
2023/01/09 01:14:49;;;;;;;49.96;35.36;;;;;;;-11.73;64.65;102852.63;450989;117;922560;-71
2023/01/09 01:15:52;;;;;;;46.41;34.18;;;;;;;-11.69;64.92;102856.08;451623;117;922947;-71
2023/01/09 01:16:55;;;;;;;46.86;35.07;;;;;;;-11.66;65.02;102848.13;450432;117;922486;-71
2023/01/09 01:17:58;;;;;;;47.84;35.04;;;;;;;-11.63;65.06;102848.95;449284;117;922917;-71
2023/01/09 01:19:01;;;;;;;53.11;35.72;;;;;;;-11.62;65.05;102841.94;451419;117;922541;-70
2023/01/09 01:20:07;;;;;;;51.07;36.47;;;;;;;-11.60;65.12;102841.05;450423;117;922502;-71
2023/01/09 01:21:11;;;;;;;57.17;36.77;;;;;;;-11.58;65.30;102834.02;449592;118;930430;-71
2023/01/09 01:22:14;;;;;;;54.70;37.50;;;;;;;-11.53;65.40;102841.84;449700;117;922480;-71
2023/01/09 01:23:17;;;;;;;49.55;38.03;;;;;;;-11.48;65.56;102840.02;449885;118;922695;-71
2023/01/09 01:24:20;;;;;;;53.67;38.76;;;;;;;-11.45;65.69;102840.84;449914;117;922826;-71
2023/01/09 01:25:23;;;;;;;52.29;40.09;;;;;;;-11.41;65.76;102845.16;449754;117;922550;-71
2023/01/09 01:26:26;;;;;;;55.08;40.16;;;;;;;-11.36;65.83;102841.62;451036;117;922918;-71
2023/01/09 01:27:29;;;;;;;54.34;37.41;;;;;;;-11.33;65.99;102842.44;451506;117;922678;-71
2023/01/09 01:28:32;;;;;;;56.47;39.37;;;;;;;-11.29;66.06;102838.87;451629;117;923673;-71
2023/01/09 01:29:35;;;;;;;51.87;38.25;;;;;;;-11.26;66.12;102843.23;451549;117;922720;-71
2023/01/09 01:30:40;;;;;;;53.04;36.26;;;;;;;-11.23;66.02;102845.81;451654;117;922477;-71
2023/01/09 01:31:43;;;;;;;55.94;37.06;;;;;;;-11.22;66.04;102843.17;449683;118;922486;-71
2023/01/09 01:32:46;;;;;;;53.27;37.85;;;;;;;-11.20;66.13;102849.30;449740;118;930502;-71
2023/01/09 01:33:49;;;;;;;53.34;37.64;;;;;;;-11.19;66.04;102848.38;449798;117;922523;-71
2023/01/09 01:34:52;;;;;;;53.79;37.19;;;;;;;-11.19;66.00;102842.27;450434;117;922507;-71
2023/01/09 01:36:07;;;;;;;48.54;36.71;;;;;;;-11.17;65.90;102840.46;449894;117;922744;-70
2023/01/09 01:37:10;;;;;;;50.92;36.22;;;;;;;-11.16;65.97;102837.81;449692;118;922912;-71
2023/01/09 01:38:13;;;;;;;49.89;35.95;;;;;;;-11.14;66.01;102843.07;450363;117;922538;-72
2023/01/09 01:39:16;;;;;;;47.08;34.82;;;;;;;-11.13;66.00;102842.16;451648;117;922791;-72
2023/01/09 01:40:19;;;;;;;57.80;42.54;;;;;;;-11.12;66.14;102836.87;451519;117;923105;-70
2023/01/09 01:41:29;;;;;;;50.33;39.12;;;;;;;-11.10;66.03;102837.73;451491;117;930273;-72
2023/01/09 01:42:32;;;;;;;46.46;35.44;;;;;;;-11.09;66.04;102833.34;451324;117;922545;-72
2023/01/09 01:43:57;;;;;;;52.65;35.20;;;;;;;-11.08;66.21;102814.86;450979;117;922555;-71
2023/01/09 01:45:15;;;;;;;44.93;32.71;;;;;;;-11.05;66.12;102827.13;423601;124;922808;-71
2023/01/09 01:46:19;;;;;;;51.99;35.21;;;;;;;-11.06;66.15;102823.62;422981;123;922833;-71
2023/01/09 01:47:26;;;;;;;45.08;34.02;;;;;;;-11.05;66.16;102827.13;423188;124;922913;-70
2023/01/09 01:48:29;;;;;;;46.43;34.92;;;;;;;-11.05;66.27;102824.48;422982;125;922865;-70
2023/01/09 01:49:32;;;;;;;48.16;35.52;;;;;;;-11.04;66.35;102826.23;424923;124;923203;-71
2023/01/09 01:50:45;;;;;;;45.66;34.99;;;;;;;-11.03;66.45;102827.98;430437;118;931166;-70
2023/01/09 01:51:52;;;;;;;45.24;34.27;;;;;;;-11.02;66.35;102821.80;446514;117;930347;-71
2023/01/09 01:53:04;;;;;;;52.08;37.27;;;;;;;-11.01;66.35;102818.28;449744;117;922529;-71
2023/01/09 01:54:10;;;;;;;54.50;38.04;;;;;;;-11.03;66.34;102831.49;450287;117;922550;-71
2023/01/09 01:55:15;;;;;;;55.88;40.65;;;;;;;-11.02;66.24;102824.43;449683;117;922535;-71
2023/01/09 01:56:25;;;;;;;54.61;39.27;;;;;;;-11.03;66.19;102830.62;446944;117;922657;-72
2023/01/09 01:57:29;;;;;;;63.56;42.59;;;;;;;-11.03;66.29;102828.86;449928;117;922682;-71
2023/01/09 01:58:36;;;;;;;72.10;47.41;;;;;;;-11.03;66.08;102830.62;449633;118;922613;-71
2023/01/09 01:59:49;;;;;;;82.57;55.91;;;;;;;-11.04;66.00;102832.38;449557;118;930721;-71
2023/01/09 02:00:51;;;;;;;93.07;62.24;;;;;;;-11.04;66.10;102831.50;449706;118;922528;-71
2023/01/09 02:01:57;;;;;;;97.52;66.14;;;;;;;-11.05;66.11;102843.80;449833;117;922945;-71
2023/01/09 02:03:01;;;;;;;94.51;62.27;;;;;;;-11.05;65.99;102838.53;448601;117;930467;-71
2023/01/09 02:04:05;;;;;;;93.81;60.26;;;;;;;-11.05;66.11;102843.80;448708;117;922310;-71
2023/01/09 02:05:08;;;;;;;84.41;55.06;;;;;;;-11.05;66.13;102837.66;449859;118;922722;-71
2023/01/09 02:06:12;;;;;;;75.68;49.69;;;;;;;-11.05;66.12;102850.83;441068;119;922589;-71
2023/01/09 02:07:15;;;;;;;73.92;50.71;;;;;;;-11.06;65.97;102842.05;440847;118;923121;-71
2023/01/09 02:08:19;;;;;;;70.01;44.37;;;;;;;-11.06;66.00;102839.42;449517;117;922865;-71
2023/01/09 02:09:24;;;;;;;47.62;37.24;;;;;;;-11.07;65.86;102845.58;450061;117;922543;-71
2023/01/09 02:10:27;;;;;;;49.03;36.91;;;;;;;-11.08;65.79;102838.56;450176;117;922651;-72
2023/01/09 02:11:30;;;;;;;44.69;34.58;;;;;;;-11.09;65.88;102842.12;450462;117;922551;-71
2023/01/09 02:12:33;;;;;;;45.38;34.58;;;;;;;-11.10;65.78;102840.37;449767;118;923955;-72
2023/01/09 02:13:39;;;;;;;51.13;35.76;;;;;;;-11.09;65.84;102847.37;450879;117;930478;-71
2023/01/09 02:14:44;;;;;;;46.37;35.37;;;;;;;-11.10;65.83;102839.50;453146;116;922684;-70
2023/01/09 02:15:57;;;;;;;40.79;33.22;;;;;;;-11.12;65.80;102849.17;455260;116;922531;-72
2023/01/09 02:17:03;;;;;;;40.65;31.61;;;;;;;-11.11;65.71;102843.89;448173;118;922599;-71
2023/01/09 02:18:13;;;;;;;40.08;29.92;;;;;;;-11.14;65.72;102835.17;447511;118;922560;-71
2023/01/09 02:19:22;;;;;;;33.94;27.61;;;;;;;-11.15;65.56;102836.06;449298;116;923417;-71
2023/01/09 02:20:44;;;;;;;37.32;29.71;;;;;;;-11.16;65.68;102842.21;455932;114;922681;-72
2023/01/09 02:22:07;;;;;;;38.26;28.42;;;;;;;-11.18;65.70;102839.59;455436;116;922567;-70
2023/01/09 02:23:32;;;;;;;37.55;29.17;;;;;;;-11.19;65.57;102842.27;455768;116;922928;-71
2023/01/09 02:24:44;;;;;;;32.96;26.77;;;;;;;-11.22;65.73;102837.91;452816;116;922482;-71
2023/01/09 02:26:08;;;;;;;31.49;26.64;;;;;;;-11.25;65.62;102834.45;454263;116;923188;-71
2023/01/09 02:27:26;;;;;;;37.58;28.01;;;;;;;-11.28;65.56;102840.62;455881;116;922868;-71
2023/01/09 02:28:36;;;;;;;34.70;26.88;;;;;;;-11.31;65.44;102834.53;455843;116;922504;-71
2023/01/09 02:30:14;;;;;;;32.87;28.02;;;;;;;-11.33;65.45;102837.17;449438;116;922588;-71
2023/01/09 02:31:36;;;;;;;30.29;25.97;;;;;;;-11.35;65.54;102836.31;448047;118;922641;-71
2023/01/09 02:32:43;;;;;;;33.70;25.14;;;;;;;-11.39;65.46;102839.89;453902;116;923212;-71
2023/01/09 02:34:10;;;;;;;32.37;25.27;;;;;;;-11.42;65.49;102834.68;455747;116;922560;-71
2023/01/09 02:35:17;;;;;;;30.41;24.14;;;;;;;-11.43;65.52;102836.44;448156;118;922589;-71
2023/01/09 02:36:35;;;;;;;30.39;24.21;;;;;;;-11.44;65.51;102836.45;448080;118;922489;-71
2023/01/09 02:38:03;;;;;;;29.29;23.97;;;;;;;-11.45;65.38;102837.33;453930;116;922587;-70
2023/01/09 02:39:12;;;;;;;27.84;22.67;;;;;;;-11.48;65.46;102846.16;453704;116;922813;-71
2023/01/09 02:40:21;;;;;;;;;;;;;;;-11.49;65.52;102848.80;453344;116;922153;-71
2023/01/09 02:41:33;;;;;;;27.46;22.41;;;;;;;-11.51;65.45;102840.05;447844;118;922547;-71
2023/01/09 02:42:39;;;;;;;39.16;23.04;;;;;;;-11.54;65.58;102842.73;454368;116;922481;-71
2023/01/09 02:43:43;;;;;;;32.78;22.98;;;;;;;-11.57;65.65;102843.63;455873;116;922837;-71
2023/01/09 02:44:46;;;;;;;26.86;24.01;;;;;;;-11.58;65.72;102852.44;455750;116;922525;-70
2023/01/09 02:45:49;;;;;;;33.96;26.05;;;;;;;-11.58;65.71;102848.93;454968;114;922494;-71
2023/01/09 02:47:07;;;;;;;27.53;23.40;;;;;;;-11.59;65.66;102840.16;455660;116;922520;-71
2023/01/09 02:48:10;;;;;;;31.34;24.44;;;;;;;-11.60;65.50;102846.30;447013;116;923510;-71
2023/01/09 02:49:15;;;;;;;30.55;24.99;;;;;;;-11.60;65.38;102846.30;452563;116;922584;-71
2023/01/09 02:50:25;;;;;;;32.47;24.91;;;;;;;-11.60;65.38;102841.05;455800;116;930535;-71
2023/01/09 02:51:37;;;;;;;29.55;24.32;;;;;;;-11.61;65.55;102844.56;455419;116;922806;-72
2023/01/09 02:52:44;;;;;;;26.71;23.88;;;;;;;-11.61;65.53;102843.69;455676;116;922577;-71
2023/01/09 02:53:54;;;;;;;29.22;25.49;;;;;;;-11.60;65.57;102841.05;450967;117;922604;-71
2023/01/09 02:55:03;;;;;;;34.56;26.65;;;;;;;-11.59;65.48;102836.66;451091;117;922672;-72
2023/01/09 02:56:16;;;;;;;30.53;26.18;;;;;;;-11.59;65.47;102837.53;448307;118;923001;-71
2023/01/09 02:57:35;;;;;;;29.73;25.51;;;;;;;-11.58;65.59;102838.41;447322;118;922554;-70
2023/01/09 02:58:45;;;;;;;32.14;25.45;;;;;;;-11.59;65.43;102834.89;447356;118;922737;-71
2023/01/09 03:00:16;;;;;;;34.01;25.00;;;;;;;-11.59;65.55;102829.63;454289;116;922622;-72
2023/01/09 03:01:25;;;;;;;30.38;24.46;;;;;;;-11.59;65.50;102832.27;450144;116;922777;-72
2023/01/09 03:02:33;;;;;;;28.36;24.63;;;;;;;-11.58;65.62;102835.77;446576;118;922575;-71
2023/01/09 03:04:01;;;;;;;30.98;25.58;;;;;;;-11.59;65.50;102836.66;446514;118;922449;-71
2023/01/09 03:05:24;;;;;;;33.52;27.08;;;;;;;-11.60;65.65;102834.91;446842;118;923109;-71
2023/01/09 03:06:39;;;;;;;39.39;27.90;;;;;;;-11.60;65.71;102832.27;453504;116;922558;-72
2023/01/09 03:07:48;;;;;;;36.60;28.03;;;;;;;-11.62;65.59;102840.18;448246;118;922679;-71
2023/01/09 03:08:56;;;;;;;39.99;29.14;;;;;;;-11.62;65.62;102834.04;450793;116;922882;-71
2023/01/09 03:10:08;;;;;;;37.60;29.94;;;;;;;-11.63;65.73;102841.06;455819;116;922701;-70
2023/01/09 03:11:11;;;;;;;36.24;29.42;;;;;;;-11.64;65.57;102839.34;438410;121;922990;-71
2023/01/09 03:12:18;;;;;;;35.68;27.74;;;;;;;-11.63;65.61;102832.33;453057;116;922511;-71
2023/01/09 03:13:23;;;;;;;38.57;26.70;;;;;;;-11.63;65.62;102837.59;455718;116;922479;-71
2023/01/09 03:14:30;;;;;;;35.33;29.88;;;;;;;-11.62;65.67;102842.81;455664;116;922507;-72
2023/01/09 03:15:36;;;;;;;43.97;30.67;;;;;;;-11.62;65.57;102839.30;448004;118;922882;-72
2023/01/09 03:16:41;;;;;;;38.92;30.79;;;;;;;-11.61;65.57;102833.16;448683;116;922531;-71
2023/01/09 03:17:47;;;;;;;37.58;30.17;;;;;;;-11.62;65.66;102836.67;455890;116;922576;-71
2023/01/09 03:18:51;;;;;;;40.68;31.89;;;;;;;-11.61;65.62;102827.89;454468;116;922628;-70
2023/01/09 03:19:56;;;;;;;40.87;31.38;;;;;;;-11.59;65.60;102837.53;455708;116;922460;-70
2023/01/09 03:21:01;;;;;;;43.04;32.28;;;;;;;-11.59;65.53;102829.63;455715;116;930571;-71
2023/01/09 03:22:06;;;;;;;42.58;32.17;;;;;;;-11.58;65.44;102831.38;456012;116;922557;-71
2023/01/09 03:23:09;;;;;;;52.87;33.95;;;;;;;-11.58;65.36;102823.48;450744;116;927404;-71
2023/01/09 03:24:12;;;;;;;70.20;40.94;;;;;;;-11.59;65.29;102821.73;446783;118;922543;-71
2023/01/09 03:25:17;;;;;;;89.73;55.16;;;;;;;-11.58;65.22;102817.35;446683;118;922592;-70
2023/01/09 03:26:20;;;;;;;85.38;55.48;;;;;;;-11.58;65.33;102828.75;446496;118;922640;-71
2023/01/09 03:27:24;;;;;;;80.84;51.43;;;;;;;-11.58;65.28;102817.35;446795;116;930559;-71
2023/01/09 03:28:29;;;;;;;62.56;40.69;;;;;;;-11.58;65.08;102822.61;446780;118;923196;-71
2023/01/09 03:29:32;;;;;;;51.19;34.93;;;;;;;-11.59;65.15;102824.37;448122;118;922614;-71
2023/01/09 03:30:36;;;;;;;48.36;33.53;;;;;;;-11.59;65.04;102818.23;448594;116;922490;-71
2023/01/09 03:31:39;;;;;;;48.14;32.64;;;;;;;-11.58;65.05;102827.88;456068;116;930512;-72
2023/01/09 03:32:42;;;;;;;45.25;31.77;;;;;;;-11.60;65.05;102827.88;454858;116;922397;-71
2023/01/09 03:33:45;;;;;;;40.93;31.25;;;;;;;-11.60;65.15;102825.25;446680;118;922538;-71
2023/01/09 03:34:48;;;;;;;40.99;31.52;;;;;;;-11.60;65.01;102829.64;450765;116;922608;-71
2023/01/09 03:35:51;;;;;;;43.48;31.01;;;;;;;-11.60;65.19;102825.25;446908;118;922636;-72
2023/01/09 03:36:54;;;;;;;36.94;29.59;;;;;;;-11.60;65.07;102835.78;446932;116;922717;-71
2023/01/09 03:37:58;;;;;;;38.62;29.64;;;;;;;-11.58;65.11;102831.38;456134;116;922604;-72
2023/01/09 03:39:01;;;;;;;39.03;28.14;;;;;;;-11.57;65.06;102834.85;452825;116;922518;-72
2023/01/09 03:40:04;;;;;;;36.36;28.74;;;;;;;-11.56;65.06;102826.08;447072;118;930664;-72
2023/01/09 03:41:08;;;;;;;38.92;28.31;;;;;;;-11.55;65.15;102833.96;447001;118;922786;-72
2023/01/09 03:42:10;;;;;;;35.41;27.61;;;;;;;-11.55;65.15;102826.06;452448;116;922719;-69
2023/01/09 03:43:14;;;;;;;33.96;27.17;;;;;;;-11.55;65.00;102826.06;455046;116;922974;-72
2023/01/09 03:44:17;;;;;;;33.36;27.52;;;;;;;-11.55;65.03;102823.43;441934;118;922572;-72
2023/01/09 03:45:20;;;;;;;34.53;27.87;;;;;;;-11.54;65.09;102827.81;439771;118;923011;-71
2023/01/09 03:46:23;;;;;;;37.33;27.98;;;;;;;-11.52;64.94;102830.44;447118;118;922779;-71
2023/01/09 03:47:26;;;;;;;37.36;27.81;;;;;;;-11.53;64.95;102826.05;447171;116;922481;-71
2023/01/09 03:48:29;;;;;;;36.75;28.28;;;;;;;-11.53;65.05;102826.05;446770;118;922744;-71
2023/01/09 03:49:32;;;;;;;37.38;28.84;;;;;;;-11.54;65.02;102819.91;449463;116;922592;-71
2023/01/09 03:50:35;;;;;;;30.48;27.01;;;;;;;-11.54;65.01;102830.44;456034;116;922556;-71
2023/01/09 03:51:38;;;;;;;33.69;26.79;;;;;;;-11.52;65.01;102822.53;451897;116;922546;-70
2023/01/09 03:52:41;;;;;;;31.68;27.34;;;;;;;-11.52;64.93;102819.91;446292;119;922563;-71
2023/01/09 03:53:44;;;;;;;32.98;27.84;;;;;;;-11.51;65.04;102824.25;446345;118;922883;-70
2023/01/09 03:54:47;;;;;;;32.94;26.28;;;;;;;-11.51;65.04;102816.36;448388;116;922578;-71
2023/01/09 03:55:53;;;;;;;34.01;26.04;;;;;;;-11.50;65.03;102811.08;455692;116;922610;-70
2023/01/09 03:56:56;;;;;;;30.39;25.50;;;;;;;-11.50;65.04;102810.20;455649;116;922983;-71
2023/01/09 03:57:59;;;;;;;33.68;26.77;;;;;;;-11.50;65.01;102818.10;456133;116;923039;-71
2023/01/09 03:59:02;;;;;;;33.49;25.58;;;;;;;-11.51;64.99;102811.97;456103;116;922451;-71
2023/01/09 04:00:07;;;;;;;30.56;26.65;;;;;;;-11.51;64.85;102805.83;455882;116;922625;-70
2023/01/09 04:01:12;;;;;;;31.40;25.11;;;;;;;-11.52;64.81;102815.48;455679;116;922793;-70
2023/01/09 04:02:16;;;;;;;31.28;24.61;;;;;;;-11.53;64.93;102808.50;455963;116;922953;-70
2023/01/09 04:03:20;;;;;;;32.82;26.26;;;;;;;-11.53;64.91;102810.27;455744;116;930194;-70
2023/01/09 04:04:23;;;;;;;30.86;27.38;;;;;;;-11.54;64.79;102816.41;455511;116;930291;-71
2023/01/09 04:05:26;;;;;;;32.78;26.34;;;;;;;-11.55;64.82;102812.91;446736;118;922937;-70
2023/01/09 04:06:29;;;;;;;36.70;26.64;;;;;;;-11.56;64.73;102812.91;448162;116;922561;-71
2023/01/09 04:07:32;;;;;;;34.96;27.66;;;;;;;-11.59;64.64;102803.31;456094;116;923206;-71
2023/01/09 04:08:35;;;;;;;38.31;28.21;;;;;;;-11.60;64.54;102805.96;456049;116;922729;-71
2023/01/09 04:09:38;;;;;;;36.13;27.37;;;;;;;-11.61;64.54;102799.83;456017;116;922578;-71
2023/01/09 04:10:43;;;;;;;35.95;25.88;;;;;;;-11.60;64.52;102805.96;454536;116;922543;-71
2023/01/09 04:11:46;;;;;;;33.85;25.92;;;;;;;-11.63;64.46;102801.59;446959;118;923444;-71
2023/01/09 04:12:49;;;;;;;34.82;27.17;;;;;;;-11.63;64.46;102803.38;449269;116;922439;-71
2023/01/09 04:13:52;;;;;;;33.39;27.26;;;;;;;-11.64;64.58;102799.00;456042;116;922516;-71
2023/01/09 04:14:55;;;;;;;35.17;26.14;;;;;;;-11.64;64.46;102804.27;453153;116;922534;-71
2023/01/09 04:15:58;;;;;;;31.34;27.10;;;;;;;-11.65;64.36;102807.78;447572;118;922541;-70
2023/01/09 04:17:02;;;;;;;34.78;27.84;;;;;;;-11.67;64.33;102807.80;447212;118;922438;-70
2023/01/09 04:18:05;;;;;;;33.51;27.81;;;;;;;-11.70;64.10;102813.11;446785;118;922468;-71
2023/01/09 04:19:07;;;;;;;35.14;27.35;;;;;;;-11.72;63.96;102812.25;451232;116;922417;-70
2023/01/09 04:20:12;;;;;;;32.48;26.38;;;;;;;-11.74;63.99;102814.05;455972;116;922656;-71
2023/01/09 04:21:15;;;;;;;34.67;26.26;;;;;;;-11.75;63.90;102812.33;454225;116;922513;-71
2023/01/09 04:22:18;;;;;;;32.86;26.47;;;;;;;-11.77;63.80;102815.86;455902;116;922477;-72
2023/01/09 04:23:21;;;;;;;28.71;25.69;;;;;;;-11.79;63.98;102815.86;456121;116;922468;-70
2023/01/09 04:24:23;;;;;;;33.79;26.73;;;;;;;-11.79;64.01;102809.73;455942;116;922915;-71
2023/01/09 04:25:27;;;;;;;33.54;26.49;;;;;;;-11.79;64.03;102799.20;456025;116;922577;-71
2023/01/09 04:26:29;;;;;;;31.81;25.49;;;;;;;-11.79;64.00;102804.47;455961;116;922742;-71
2023/01/09 04:27:34;;;;;;;32.99;24.18;;;;;;;-11.79;63.89;102807.09;455879;116;922595;-71
2023/01/09 04:28:37;;;;;;;30.41;25.23;;;;;;;-11.80;63.81;102801.00;455387;116;930441;-71
2023/01/09 04:29:40;;;;;;;30.82;24.94;;;;;;;-11.81;63.79;102803.64;446761;118;922650;-71
2023/01/09 04:30:43;;;;;;;34.50;26.56;;;;;;;-11.84;63.58;102801.90;446899;116;922911;-71
2023/01/09 04:31:46;;;;;;;36.08;26.74;;;;;;;-11.86;63.61;102799.31;446703;118;922504;-71
2023/01/09 04:32:50;;;;;;;31.71;26.64;;;;;;;-11.88;63.55;102801.08;446951;116;923024;-71
2023/01/09 04:33:53;;;;;;;30.41;26.38;;;;;;;-11.89;63.57;102791.44;446646;118;922526;-70
2023/01/09 04:34:56;;;;;;;32.22;25.70;;;;;;;-11.90;63.61;102797.58;448746;116;922499;-71
2023/01/09 04:35:59;;;;;;;29.77;25.56;;;;;;;-11.90;63.50;102797.58;448259;118;922616;-71
2023/01/09 04:37:03;;;;;;;31.79;26.20;;;;;;;-11.89;63.66;102798.45;453207;116;922585;-71
2023/01/09 04:38:06;;;;;;;34.16;26.18;;;;;;;-11.89;63.71;102803.72;456097;116;922565;-71
2023/01/09 04:39:09;;;;;;;32.43;26.14;;;;;;;-11.89;63.66;102808.98;449805;116;922534;-71
2023/01/09 04:40:13;;;;;;;32.36;25.57;;;;;;;-11.89;63.75;102811.61;447110;118;922839;-71
2023/01/09 04:41:47;;;;;;;36.17;27.07;;;;;;;-11.90;63.73;102797.58;449531;116;930483;-71
2023/01/09 04:42:21;;;;;;;29.38;26.12;;;;;;;-11.89;63.80;102799.33;452977;116;930488;-69
2023/01/09 04:43:24;;;;;;;36.64;27.59;;;;;;;-11.88;63.83;102805.47;452465;116;922478;-71
2023/01/09 04:44:27;;;;;;;36.64;26.62;;;;;;;-11.89;63.79;102793.20;451062;117;922717;-71
2023/01/09 04:45:30;;;;;;;32.74;26.71;;;;;;;-11.87;63.92;102791.43;451140;117;922576;-71
2023/01/09 04:46:33;;;;;;;32.30;26.37;;;;;;;-11.87;63.94;102789.67;451782;116;922432;-71
2023/01/09 04:47:36;;;;;;;37.32;27.32;;;;;;;-11.86;63.84;102799.31;456103;116;922468;-71
2023/01/09 04:48:39;;;;;;;32.30;27.35;;;;;;;-11.87;64.00;102792.30;454507;116;922790;-71
2023/01/09 04:49:42;;;;;;;33.29;27.87;;;;;;;-11.86;63.97;102793.17;450462;116;922676;-71
2023/01/09 04:50:45;;;;;;;30.71;26.36;;;;;;;-11.86;63.90;102798.44;446743;118;922862;-72
2023/01/09 04:51:48;;;;;;;36.98;27.06;;;;;;;-11.86;63.98;102795.80;448019;116;922784;-70
2023/01/09 04:52:51;;;;;;;38.36;27.37;;;;;;;-11.85;63.89;102797.52;446764;118;922586;-71
2023/01/09 04:53:54;;;;;;;33.08;28.62;;;;;;;-11.85;64.04;102792.26;450384;116;922663;-71
2023/01/09 04:54:57;;;;;;;32.80;27.51;;;;;;;-11.85;63.95;102789.63;448149;116;922545;-69
2023/01/09 04:56:01;;;;;;;34.26;27.57;;;;;;;-11.86;64.04;102788.79;452222;116;922610;-72